Time;durP1;ratioP1;P1;durP2;ratioP2;P2;SDS_P1;SDS_P2;PMS_P1;PMS_P2;Temp;Humidity;BMP_temperature;BMP_pressure;BME280_temperature;BME280_humidity;BME280_pressure;Samples;Min_cycle;Max_cycle;Signal;HPM_P1;HPM_P2
2022/01/21 00:01:20;;;;;;;;;12.50;12.25;;;;;7.88;55.79;103122.50;4935959;28;45061;-79
2022/01/21 00:03:46;;;;;;;;;10.00;6.50;;;;;7.86;56.19;103128.53;4930825;28;45297;-76
2022/01/21 00:06:12;;;;;;;;;14.50;13.50;;;;;7.64;56.32;103099.34;4932470;28;45379;-77
2022/01/21 00:08:39;;;;;;;;;20.25;10.75;;;;;7.67;56.17;103108.53;4937192;28;44941;-75
2022/01/21 00:11:05;;;;;;;;;15.00;13.25;;;;;7.87;56.13;103146.34;4927577;28;45486;-78
2022/01/21 00:13:34;;;;;;;;;6.50;4.00;;;;;7.87;56.47;103149.00;4931190;28;45307;-77
2022/01/21 00:16:19;;;;;;;;;15.75;11.75;;;;;7.59;55.95;103084.78;4927544;28;45682;-77
2022/01/21 00:18:57;;;;;;;;;7.00;4.50;;;;;7.97;56.34;103142.63;4926485;28;45373;-76
2022/01/21 00:32:19;;;;;;;;;5.00;3.50;;;;;7.57;56.74;103109.56;4947925;28;45621;-72
2022/01/21 00:34:44;;;;;;;;;10.00;7.25;;;;;7.40;56.89;103087.78;4941499;28;45082;-73
2022/01/21 00:37:10;;;;;;;;;6.25;4.00;;;;;7.33;56.79;103075.75;4935195;28;44941;-71
2022/01/21 00:39:36;;;;;;;;;9.00;4.50;;;;;7.68;56.84;103122.75;4932856;28;45338;-72
2022/01/21 00:42:13;;;;;;;;;10.00;3.25;;;;;7.69;57.11;103122.88;4924689;28;47012;-75
2022/01/21 00:44:39;;;;;;;;;21.50;9.00;;;;;7.42;57.41;103080.84;4917667;28;45619;-78
2022/01/21 00:47:05;;;;;;;;;7.75;5.00;;;;;7.53;57.36;103099.47;4932457;28;45463;-76
2022/01/21 00:49:30;;;;;;;;;7.00;6.50;;;;;7.20;57.33;103056.19;4936385;28;45178;-76
2022/01/21 00:51:55;;;;;;;;;4.00;4.00;;;;;7.66;56.74;103113.72;4935107;28;45433;-77
2022/01/21 00:54:21;;;;;;;;;4.50;3.50;;;;;7.37;56.72;103067.19;4935192;28;45149;-77
2022/01/21 00:56:46;;;;;;;;;7.25;5.00;;;;;7.41;57.36;103079.94;4935160;28;45183;-71
2022/01/21 00:59:12;;;;;;;;;10.75;7.25;;;;;7.65;56.93;103125.16;4941838;28;45061;-78
2022/01/21 01:01:37;;;;;;;;;10.50;5.25;;;;;7.68;56.62;103128.97;4935473;28;45175;-75
2022/01/21 01:04:04;;;;;;;;;5.00;4.50;;;;;7.54;57.16;103092.44;4936092;28;45317;-77
2022/01/21 01:06:29;;;;;;;;;4.75;4.25;;;;;7.57;57.14;103101.56;4935494;28;44944;-76
2022/01/21 01:08:55;;;;;;;;;8.50;4.25;;;;;7.68;57.01;103110.34;4937301;28;45247;-74
2022/01/21 01:22:06;;;;;;;;;7.00;5.25;;;;;7.64;56.48;103102.00;4953342;28;45229;-78
2022/01/21 01:27:37;;;;;;;;;6.00;4.50;;;;;7.42;57.02;103087.06;4935312;28;45094;-74
2022/01/21 01:30:05;;;;;;;;;9.50;6.75;;;;;7.17;57.21;103052.34;4935294;28;45210;-77
2022/01/21 01:32:31;;;;;;;;;10.25;6.50;;;;;7.53;57.66;103115.44;4916609;28;47252;-72
2022/01/21 01:34:56;;;;;;;;;10.50;7.00;;;;;7.55;57.26;103116.47;4907946;28;45441;-75
2022/01/21 01:40:25;;;;;;;;;7.50;3.50;;;;;7.41;57.53;103103.88;4940553;28;45085;-77
2022/01/21 01:51:17;;;;;;;;;3.00;3.00;;;;;7.53;57.75;103128.72;4917729;28;45067;-77
2022/01/21 01:53:51;;;;;;;;;3.50;3.50;;;;;7.45;57.34;103105.94;4932218;28;46086;-78
2022/01/21 01:56:21;;;;;;;;;4.25;4.25;;;;;7.52;57.67;103123.28;4932717;28;45081;-74
2022/01/21 01:58:46;;;;;;;;;10.25;5.00;;;;;7.48;57.10;103129.19;4934200;28;45068;-74
2022/01/21 02:01:12;;;;;;;;;6.75;4.00;;;;;7.42;57.34;103139.34;4932367;28;45788;-74
2022/01/21 02:03:38;;;;;;;;;8.25;5.25;;;;;7.27;57.66;103139.09;4937970;28;46004;-74
2022/01/21 02:06:04;;;;;;;;;5.25;3.75;;;;;7.00;57.99;103106.88;4931308;28;45097;-76
2022/01/21 02:08:33;;;;;;;;;2.75;2.75;;;;;6.97;58.04;103111.94;4927508;28;45420;-75
2022/01/21 02:10:58;;;;;;;;;7.00;3.75;;;;;7.15;58.07;103139.06;4915723;28;45532;-74
2022/01/21 02:13:27;;;;;;;;;7.25;3.75;;;;;7.19;58.19;103139.41;4923587;28;45339;-77
2022/01/21 02:15:57;;;;;;;;;8.00;3.00;;;;;7.15;58.38;103129.34;4917690;28;45324;-71
2022/01/21 02:21:35;;;;;;;;;7.75;4.75;;;;;6.86;58.41;103089.81;4931106;28;44959;-73
2022/01/21 02:24:16;;;;;;;;;5.00;5.00;;;;;7.09;58.40;103138.56;4931689;28;45945;-76
2022/01/21 02:26:42;;;;;;;;;4.00;3.75;;;;;7.07;58.49;103133.13;4931562;28;45828;-76
2022/01/21 02:29:09;;;;;;;;;9.50;5.25;;;;;7.07;58.49;103130.47;4930950;28;45302;-72
2022/01/21 02:31:36;;;;;;;;;7.25;3.50;;;;;7.02;58.55;103115.88;4931652;28;45091;-76
2022/01/21 02:34:04;;;;;;;;;4.00;3.75;;;;;6.99;58.56;103124.53;4934517;28;45105;-76
2022/01/21 02:36:29;;;;;;;;;10.00;8.25;;;;;7.06;58.47;103133.94;4923403;28;45180;-72
2022/01/21 02:38:54;;;;;;;;;4.25;3.00;;;;;7.07;58.55;103134.84;4933975;28;45004;-76
2022/01/21 02:41:20;;;;;;;;;3.00;3.00;;;;;7.04;58.51;103134.63;4934117;28;45190;-75
2022/01/21 02:43:46;;;;;;;;;5.00;4.00;;;;;6.92;58.54;103122.19;4951142;28;46374;-75
2022/01/21 02:46:14;;;;;;;;;11.50;6.00;;;;;7.06;58.51;103133.00;4936095;28;45013;-79
2022/01/21 02:48:39;;;;;;;;;5.75;3.75;;;;;6.76;58.76;103085.50;4924276;28;45136;-75
2022/01/21 02:51:11;;;;;;;;;8.00;4.75;;;;;6.95;58.61;103121.53;4937725;28;45198;-76
2022/01/21 02:56:10;;;;;;;;;9.25;2.50;;;;;6.76;58.22;103089.91;4937382;28;45071;-75
2022/01/21 02:58:36;;;;;;;;;4.75;3.00;;;;;6.70;58.79;103087.69;4937730;28;45206;-77
2022/01/21 03:01:01;;;;;;;;;7.25;7.00;;;;;6.68;59.12;103086.63;4945144;28;45140;-75
2022/01/21 03:03:27;;;;;;;;;3.50;3.25;;;;;6.95;58.68;103129.50;4956256;28;45338;-73
2022/01/21 03:05:52;;;;;;;;;7.00;4.00;;;;;6.83;59.05;103121.50;4932648;28;45477;-78
2022/01/21 03:08:17;;;;;;;;;3.00;3.00;;;;;6.89;58.97;103131.66;4954313;28;45600;-77
2022/01/21 03:10:43;;;;;;;;;4.00;3.00;;;;;6.90;59.06;103141.50;4944028;28;45639;-76
2022/01/21 03:13:08;;;;;;;;;7.00;4.00;;;;;6.67;58.77;103094.50;4936412;28;46761;-76
2022/01/21 03:15:34;;;;;;;;;3.50;3.00;;;;;6.78;59.23;103121.13;4933192;28;45502;-71
2022/01/21 03:17:59;;;;;;;;;3.75;3.75;;;;;6.80;59.22;103135.44;4933321;28;45252;-76
2022/01/21 03:20:24;;;;;;;;;5.75;2.75;;;;;6.60;59.47;103104.63;4938665;28;45023;-77
2022/01/21 03:22:50;;;;;;;;;5.00;3.50;;;;;6.83;59.11;103137.44;4936395;28;45187;-74
2022/01/21 03:25:15;;;;;;;;;6.75;4.00;;;;;6.48;59.25;103074.41;4936698;28;45584;-73
2022/01/21 03:27:40;;;;;;;;;8.50;6.00;;;;;6.56;58.87;103101.59;4936599;28;45082;-75
2022/01/21 03:30:08;;;;;;;;;5.25;3.50;;;;;6.79;59.22;103151.25;4938675;28;45257;-74
2022/01/21 03:32:34;;;;;;;;;7.50;6.00;;;;;6.45;59.10;103104.31;4939963;28;45437;-73
2022/01/21 03:34:59;;;;;;;;;8.75;4.50;;;;;6.73;59.53;103142.78;4944708;28;45123;-71
2022/01/21 03:37:25;;;;;;;;;4.00;4.00;;;;;6.55;59.46;103113.00;4953201;28;45322;-72
2022/01/21 03:39:50;;;;;;;;;7.50;3.00;;;;;6.48;59.07;103108.00;4943401;28;45234;-75
2022/01/21 03:42:16;;;;;;;;;6.25;5.75;;;;;6.67;59.69;103152.94;4936263;28;45368;-74
2022/01/21 03:44:41;;;;;;;;;7.00;4.00;;;;;6.67;59.70;103158.25;4936517;28;45025;-73
2022/01/21 03:47:07;;;;;;;;;6.75;6.25;;;;;6.38;59.32;103106.34;4919021;28;45473;-77
2022/01/21 03:49:38;;;;;;;;;10.75;5.50;;;;;6.64;59.24;103158.91;4942318;28;45554;-73
2022/01/21 03:52:05;;;;;;;;;4.00;4.00;;;;;6.63;59.79;103155.34;4931761;28;47314;-76
2022/01/21 03:54:31;;;;;;;;;6.00;3.25;;;;;6.64;59.91;103156.25;4953929;28;45105;-73
2022/01/21 03:56:56;;;;;;;;;9.00;6.50;;;;;6.30;59.43;103081.81;4942184;28;45366;-75
2022/01/21 03:59:21;;;;;;;;;5.75;4.00;;;;;6.27;59.47;103077.19;4941840;28;45303;-74
2022/01/21 04:01:47;;;;;;;;;8.50;4.00;;;;;6.72;59.53;103144.53;4935160;28;45131;-78
2022/01/21 04:04:12;;;;;;;;;10.00;4.25;;;;;6.75;59.59;103142.13;4936118;28;45068;-77
2022/01/21 04:06:37;;;;;;;;;3.00;3.00;;;;;6.68;59.53;103130.88;4935580;28;45184;-75
2022/01/21 04:09:03;;;;;;;;;6.75;4.00;;;;;6.58;59.45;103132.81;4935533;28;45107;-72
2022/01/21 04:11:28;;;;;;;;;3.50;3.50;;;;;6.75;59.50;103144.78;4918078;28;46697;-75
2022/01/21 04:13:55;;;;;;;;;6.00;5.75;;;;;6.74;59.21;103147.31;4936408;28;45112;-75
2022/01/21 04:16:20;;;;;;;;;2.00;2.00;;;;;6.73;59.30;103154.38;4937691;28;44936;-72
2022/01/21 04:18:46;;;;;;;;;8.25;5.00;;;;;6.56;59.14;103129.06;4934658;28;45376;-76
2022/01/21 04:21:11;;;;;;;;;8.00;4.50;;;;;6.76;59.28;103156.31;4916278;28;47292;-74
2022/01/21 04:23:37;;;;;;;;;11.25;5.25;;;;;6.74;59.30;103163.25;4942237;28;45192;-78
2022/01/21 04:26:02;;;;;;;;;7.00;3.00;;;;;6.34;59.49;103105.16;4921666;28;45522;-74
2022/01/21 04:28:29;;;;;;;;;5.00;3.75;;;;;6.68;59.69;103168.97;4938108;28;45353;-75
2022/01/21 04:30:54;;;;;;;;;6.75;3.25;;;;;6.64;59.67;103167.81;4935012;28;46099;-76
2022/01/21 04:33:20;;;;;;;;;3.25;3.25;;;;;6.68;59.50;103171.63;4935102;28;45168;-73
2022/01/21 04:35:45;;;;;;;;;4.00;4.00;;;;;6.48;60.01;103135.47;4937461;28;45120;-75
2022/01/21 04:38:13;;;;;;;;;3.50;3.50;;;;;6.66;60.00;103164.34;4934608;28;45170;-77
2022/01/21 04:40:46;;;;;;;;;8.75;6.75;;;;;6.68;59.61;103154.78;4912594;28;47690;-72
2022/01/21 04:48:40;;;;;;;;;5.00;2.75;;;;;6.59;59.49;103131.06;4952913;28;45166;-71
2022/01/21 04:51:15;;;;;;;;;8.25;5.00;;;;;6.43;59.37;103097.00;4929366;28;46243;-77
2022/01/21 04:53:45;;;;;;;;;8.00;4.00;;;;;6.80;59.77;103164.66;4946051;28;44885;-77
2022/01/21 04:56:11;;;;;;;;;1.25;1.25;;;;;6.85;59.51;103161.44;4945490;28;45107;-74
2022/01/21 04:58:37;;;;;;;;;9.25;6.50;;;;;6.59;59.33;103117.78;4936958;28;45161;-73
2022/01/21 05:01:05;;;;;;;;;3.75;3.75;;;;;6.50;59.43;103106.41;4933598;28;45836;-74
2022/01/21 05:03:30;;;;;;;;;6.75;5.75;;;;;6.73;59.52;103137.47;4939631;28;45144;-74
2022/01/21 05:05:56;;;;;;;;;5.50;3.75;;;;;6.62;59.28;103115.38;4941422;28;45190;-71
2022/01/21 05:08:26;;;;;;;;;8.75;4.00;;;;;6.97;59.18;103166.00;4939626;28;45066;-73
2022/01/21 05:10:52;;;;;;;;;7.00;4.25;;;;;6.71;58.97;103125.81;4951350;28;45323;-75
2022/01/21 05:13:22;;;;;;;;;6.75;6.75;;;;;6.93;59.52;103174.56;4951049;28;45140;-75
2022/01/21 05:16:04;;;;;;;;;12.25;4.00;;;;;6.91;59.12;103170.81;4947904;28;45363;-74
2022/01/21 05:18:29;;;;;;;;;7.00;5.00;;;;;6.94;59.27;103171.06;4946588;28;45341;-74
2022/01/21 05:20:56;;;;;;;;;5.25;4.75;;;;;6.98;58.95;103166.97;4951224;28;46476;-77
2022/01/21 05:23:22;;;;;;;;;7.25;4.00;;;;;6.80;59.09;103140.75;4951770;28;45293;-73
2022/01/21 05:25:48;;;;;;;;;13.25;3.25;;;;;6.86;59.35;103142.03;4951039;28;45060;-74
2022/01/21 05:28:13;;;;;;;;;3.25;2.75;;;;;7.05;58.86;103173.69;4915268;28;45128;-76
2022/01/21 05:30:39;;;;;;;;;7.25;4.00;;;;;6.91;58.40;103168.16;4940399;28;45968;-75
2022/01/21 05:33:04;;;;;;;;;4.00;4.00;;;;;6.66;58.61;103108.56;4932556;28;45381;-75
2022/01/21 05:35:29;;;;;;;;;8.00;4.25;;;;;7.07;58.51;103182.72;4936252;28;45281;-76
2022/01/21 05:37:55;;;;;;;;;6.00;2.75;;;;;6.75;58.73;103127.91;4935536;28;45744;-74
2022/01/21 05:40:21;;;;;;;;;5.00;3.00;;;;;6.81;58.49;103142.63;4932806;28;50622;-75
2022/01/21 05:42:46;;;;;;;;;6.50;3.00;;;;;7.04;58.97;103178.06;4920515;28;45664;-77
2022/01/21 05:47:56;;;;;;;;;3.50;3.25;;;;;7.08;58.25;103180.16;4929684;28;45362;-75
2022/01/21 05:50:22;;;;;;;;;4.75;2.50;;;;;6.97;58.89;103175.72;4926639;28;46161;-74
2022/01/21 05:52:48;;;;;;;;;3.50;3.50;;;;;7.06;58.44;103188.81;4922055;28;45716;-74
2022/01/21 05:55:15;;;;;;;;;7.00;2.75;;;;;6.79;58.73;103153.91;4925813;28;45531;-76
2022/01/21 05:57:41;;;;;;;;;9.50;4.50;;;;;6.99;58.49;103198.94;4942573;28;45423;-78
2022/01/21 06:00:07;;;;;;;;;8.00;7.00;;;;;7.03;58.49;103199.19;4932063;28;47413;-75
2022/01/21 06:02:33;;;;;;;;;7.00;3.00;;;;;6.86;59.00;103158.91;4934584;28;45849;-77
2022/01/21 06:04:58;;;;;;;;;4.75;3.25;;;;;6.60;58.74;103127.56;4937539;28;45139;-75
2022/01/21 06:07:24;;;;;;;;;7.25;3.25;;;;;6.98;58.59;103215.72;4933489;28;45365;-73
2022/01/21 06:09:49;;;;;;;;;6.00;3.75;;;;;6.93;58.72;103200.19;4934541;28;45501;-78
2022/01/21 06:12:15;;;;;;;;;5.75;4.00;;;;;6.95;58.91;103202.19;4925220;28;45185;-76
2022/01/21 06:14:40;;;;;;;;;9.00;7.00;;;;;7.00;58.70;103208.78;4932018;28;45741;-78
2022/01/21 06:17:11;;;;;;;;;5.00;4.00;;;;;7.02;58.91;103206.25;4939335;28;45049;-77
2022/01/21 06:19:36;;;;;;;;;6.25;3.50;;;;;6.99;58.82;103206.91;4936670;28;45283;-78
2022/01/21 06:22:02;;;;;;;;;4.50;3.00;;;;;6.76;58.59;103165.19;4934374;28;45063;-76
2022/01/21 06:24:27;;;;;;;;;6.75;3.75;;;;;6.88;58.69;103190.91;4938814;28;45223;-75
2022/01/21 06:26:58;;;;;;;;;6.00;2.00;;;;;6.98;58.72;103207.75;4939438;28;45103;-73
2022/01/21 06:29:24;;;;;;;;;8.00;7.00;;;;;6.70;59.27;103145.19;4938308;28;45575;-74
2022/01/21 06:31:49;;;;;;;;;8.25;2.75;;;;;7.01;58.93;103210.66;4944092;28;45456;-72
2022/01/21 06:34:14;;;;;;;;;6.00;2.75;;;;;6.71;58.92;103144.41;4933034;28;45168;-75
2022/01/21 06:36:40;;;;;;;;;6.75;3.50;;;;;7.05;59.42;103200.28;4927863;28;45645;-74
2022/01/21 06:39:05;;;;;;;;;7.00;5.00;;;;;6.81;59.07;103153.25;4931813;28;45499;-77
2022/01/21 06:41:30;;;;;;;;;4.00;4.00;;;;;7.05;58.53;103201.19;4922196;28;45376;-74
2022/01/21 06:43:55;;;;;;;;;5.25;4.00;;;;;6.99;58.57;103201.59;4936356;28;45419;-76
2022/01/21 06:46:21;;;;;;;;;3.25;3.25;;;;;6.67;58.79;103137.91;4933259;28;45587;-73
2022/01/21 06:48:46;;;;;;;;;8.25;4.50;;;;;6.85;58.28;103185.34;4929070;28;47177;-72
2022/01/21 06:51:12;;;;;;;;;7.00;4.50;;;;;6.98;58.70;103199.78;4941025;28;45195;-75
2022/01/21 06:53:37;;;;;;;;;3.25;2.50;;;;;6.53;58.74;103142.09;4944247;28;46628;-77
2022/01/21 06:56:03;;;;;;;;;7.50;4.00;;;;;6.76;58.37;103188.19;4932501;28;45217;-72
2022/01/21 06:58:28;;;;;;;;;7.00;7.00;;;;;6.68;59.12;103190.22;4937418;28;46516;-76
2022/01/21 07:00:53;;;;;;;;;7.25;3.50;;;;;6.79;58.97;103202.66;4939001;28;45018;-75
2022/01/21 07:03:19;;;;;;;;;5.00;5.00;;;;;6.98;58.91;103228.09;4936876;28;45411;-75
2022/01/21 07:05:46;;;;;;;;;5.50;5.25;;;;;6.97;59.07;103227.13;4937628;28;45274;-74
2022/01/21 07:08:14;;;;;;;;;14.75;13.25;;;;;6.98;58.88;103230.75;4946147;28;45584;-75
2022/01/21 07:10:40;;;;;;;;;13.00;10.25;;;;;6.78;59.30;103199.88;4945644;28;45790;-75
2022/01/21 07:13:05;;;;;;;;;7.00;3.00;;;;;6.85;59.01;103206.59;4926261;28;45414;-71
2022/01/21 07:15:30;;;;;;;;;32.50;21.00;;;;;7.06;58.83;103252.59;4912367;28;45627;-75
2022/01/21 07:17:56;;;;;;;;;13.00;11.00;;;;;6.52;58.71;103164.16;4942535;28;45575;-76
2022/01/21 07:20:22;;;;;;;;;18.25;14.50;;;;;6.90;59.20;103223.88;4945815;28;45239;-78
2022/01/21 07:22:47;;;;;;;;;9.75;7.75;;;;;7.06;58.89;103247.28;4936153;28;45184;-73
2022/01/21 07:25:14;;;;;;;;;4.25;4.25;;;;;7.02;58.96;103246.13;4934306;28;45374;-76
2022/01/21 07:27:40;;;;;;;;;8.50;6.00;;;;;7.00;59.68;103245.06;4932722;28;45776;-75
2022/01/21 07:30:06;;;;;;;;;8.00;4.00;;;;;6.75;59.11;103197.91;4916769;28;45365;-74
2022/01/21 07:32:32;;;;;;;;;5.00;4.00;;;;;7.15;58.99;103253.38;4926534;28;45451;-72
2022/01/21 07:34:57;;;;;;;;;12.25;9.00;;;;;7.18;59.25;103250.97;4943238;28;45197;-73
2022/01/21 07:37:23;;;;;;;;;5.00;3.25;;;;;7.18;58.95;103259.84;4933984;28;45919;-75
2022/01/21 07:39:48;;;;;;;;;9.25;7.00;;;;;7.20;59.03;103267.94;4935258;28;44910;-78
2022/01/21 07:42:14;;;;;;;;;10.25;5.75;;;;;7.22;59.19;103261.03;4934760;28;45406;-71
2022/01/21 07:44:39;;;;;;;;;5.25;3.50;;;;;7.04;58.75;103225.00;4935670;28;45520;-72
2022/01/21 07:47:05;;;;;;;;;11.25;11.25;;;;;7.26;58.47;103270.16;4920177;28;45954;-74
2022/01/21 07:49:30;;;;;;;;;6.75;4.00;;;;;6.97;58.57;103221.81;4937944;28;45217;-75
2022/01/21 07:51:56;;;;;;;;;7.00;5.25;;;;;7.22;58.73;103278.72;4929023;28;45491;-74
2022/01/21 07:54:21;;;;;;;;;15.75;12.50;;;;;7.23;58.73;103275.25;4919858;28;45455;-75
2022/01/21 07:56:47;;;;;;;;;9.25;4.75;;;;;7.15;59.10;103261.34;4916364;28;46548;-77
2022/01/21 07:59:15;;;;;;;;;8.00;5.50;;;;;7.18;58.85;103259.84;4899039;28;45449;-72
2022/01/21 08:01:41;;;;;;;;;8.00;4.00;;;;;7.29;59.10;103283.72;4916665;28;45574;-72
2022/01/21 08:04:07;;;;;;;;;12.75;11.25;;;;;7.34;58.70;103285.00;4916661;28;45467;-75
2022/01/21 08:06:32;;;;;;;;;7.75;5.25;;;;;7.40;58.55;103292.56;4933699;28;45654;-73
2022/01/21 08:08:59;;;;;;;;;5.00;5.00;;;;;7.31;58.61;103284.75;4934702;28;45427;-72
2022/01/21 08:11:25;;;;;;;;;8.25;6.75;;;;;7.43;58.85;103287.50;4918594;28;45494;-73
2022/01/21 08:13:50;;;;;;;;;9.00;4.50;;;;;7.44;58.33;103286.66;4936226;28;45407;-75
2022/01/21 08:16:16;;;;;;;;;9.25;6.75;;;;;6.96;58.25;103211.06;4936144;28;45940;-75
2022/01/21 08:18:42;;;;;;;;;9.00;6.50;;;;;7.16;58.48;103253.50;4936148;28;45440;-74
2022/01/21 08:21:07;;;;;;;;;12.00;8.00;;;;;7.32;58.39;103270.66;4936729;28;45335;-76
2022/01/21 08:23:33;;;;;;;;;14.50;13.00;;;;;7.48;58.51;103294.09;4937352;28;45461;-72
2022/01/21 08:25:58;;;;;;;;;19.50;17.25;;;;;7.37;58.08;103285.25;4936858;28;46429;-76
2022/01/21 08:28:24;;;;;;;;;13.75;8.00;;;;;7.27;58.25;103261.41;4936833;28;45564;-78
2022/01/21 08:30:49;;;;;;;;;6.50;5.25;;;;;7.29;58.28;103266.03;4936305;28;45762;-75
2022/01/21 08:33:15;;;;;;;;;64.25;50.75;;;;;7.46;58.57;103293.06;4936290;28;45467;-76
2022/01/21 08:35:40;;;;;;;;;5.25;5.25;;;;;7.36;58.71;103278.09;4935838;28;45715;-72
2022/01/21 08:38:06;;;;;;;;;10.50;7.25;;;;;7.50;58.51;103293.41;4936214;28;45510;-74
2022/01/21 08:40:32;;;;;;;;;22.00;20.00;;;;;7.54;58.47;103300.84;4935861;28;45316;-71
2022/01/21 08:42:57;;;;;;;;;17.00;12.00;;;;;7.62;58.30;103300.50;4936105;28;45450;-73
2022/01/21 08:45:23;;;;;;;;;15.25;10.75;;;;;7.61;58.69;103299.59;4936477;28;46260;-78
2022/01/21 08:47:49;;;;;;;;;13.50;8.00;;;;;7.61;57.98;103280.97;4923582;28;45359;-75
2022/01/21 08:50:18;;;;;;;;;11.75;7.00;;;;;7.73;58.60;103303.22;4935884;28;45380;-76
2022/01/21 08:52:44;;;;;;;;;10.00;9.25;;;;;7.70;58.58;103291.41;4936286;28;45532;-76
2022/01/21 08:55:15;;;;;;;;;27.25;20.50;;;;;7.81;57.97;103300.25;4936089;28;45532;-72
2022/01/21 08:57:43;;;;;;;;;10.00;8.00;;;;;7.86;57.65;103298.88;4923755;28;45301;-77
2022/01/21 09:00:18;;;;;;;;;7.00;7.00;;;;;7.85;57.66;103292.63;4929508;28;45417;-78
2022/01/21 09:02:43;;;;;;;;;8.00;5.25;;;;;7.87;58.16;103303.38;4935885;28;45529;-78
2022/01/21 09:05:10;;;;;;;;;11.25;11.00;;;;;7.45;57.80;103219.38;4935660;28;45463;-76
2022/01/21 09:07:35;;;;;;;;;20.00;10.00;;;;;7.93;57.57;103303.88;4935555;28;45334;-74
2022/01/21 09:10:02;;;;;;;;;18.50;16.50;;;;;7.71;57.65;103256.94;4916978;28;45379;-76
2022/01/21 09:12:27;;;;;;;;;22.50;18.00;;;;;7.51;57.73;103226.13;4915551;28;45593;-74
2022/01/21 09:14:53;;;;;;;;;19.00;17.25;;;;;7.66;57.31;103265.38;4916641;28;46206;-72
2022/01/21 09:17:18;;;;;;;;;6.00;5.00;;;;;7.71;57.87;103272.91;4916709;28;45578;-72
2022/01/21 09:19:44;;;;;;;;;7.50;7.50;;;;;8.08;57.02;103310.41;4917092;28;45542;-76
2022/01/21 09:22:09;;;;;;;;;11.75;8.75;;;;;7.86;57.18;103272.25;4917130;28;45554;-72
2022/01/21 09:24:36;;;;;;;;;11.25;9.00;;;;;7.81;57.33;103284.28;4916774;28;46168;-73
2022/01/21 09:27:03;;;;;;;;;12.50;9.00;;;;;8.05;57.36;103310.16;4917285;28;45492;-74
2022/01/21 09:29:28;;;;;;;;;13.00;13.00;;;;;8.07;57.48;103312.94;4916914;28;45390;-73
2022/01/21 09:31:54;;;;;;;;;11.50;10.75;;;;;7.94;57.81;103306.66;4917370;28;45516;-76
2022/01/21 09:34:20;;;;;;;;;16.50;12.50;;;;;8.12;57.10;103327.53;4916620;28;45634;-76
2022/01/21 09:36:45;;;;;;;;;26.25;21.50;;;;;8.01;57.12;103305.38;4926103;28;45403;-76
2022/01/21 09:39:12;;;;;;;;;30.25;24.50;;;;;7.87;57.49;103276.75;4935373;28;45855;-79
2022/01/21 09:41:39;;;;;;;;;24.00;21.75;;;;;7.73;56.65;103260.63;4935517;28;45443;-77
2022/01/21 09:44:07;;;;;;;;;44.50;33.75;;;;;8.23;57.07;103342.63;4935383;28;45557;-76
2022/01/21 09:46:36;;;;;;;;;11.25;5.00;;;;;8.12;56.95;103330.19;4935344;28;45371;-79
2022/01/21 09:49:08;;;;;;;;;17.25;16.75;;;;;8.24;57.65;103351.53;4926024;28;45341;-76
2022/01/21 09:51:37;;;;;;;;;39.00;28.25;;;;;8.26;57.47;103364.13;4916260;28;45458;-74
2022/01/21 09:54:04;;;;;;;;;19.00;16.00;;;;;8.14;57.68;103341.91;4916475;28;45478;-78
2022/01/21 09:56:31;;;;;;;;;13.50;12.00;;;;;8.08;57.57;103325.44;4917171;28;45523;-72
2022/01/21 09:58:59;;;;;;;;;15.00;10.00;;;;;8.18;57.30;103335.06;4916988;28;45361;-75
2022/01/21 10:01:25;;;;;;;;;10.00;8.75;;;;;8.15;57.34;103333.09;4917447;28;45451;-75
2022/01/21 10:03:51;;;;;;;;;15.25;10.00;;;;;7.90;56.97;103288.59;4916723;28;45719;-76
2022/01/21 10:06:17;;;;;;;;;7.25;2.25;;;;;8.30;57.50;103360.00;4917679;28;45301;-77
2022/01/21 10:08:44;;;;;;;;;11.50;7.00;;;;;8.32;57.40;103357.47;4900655;28;45471;-75
2022/01/21 10:11:11;;;;;;;;;11.75;10.25;;;;;8.25;57.36;103358.69;4918567;28;45493;-76
2022/01/21 10:13:37;;;;;;;;;9.00;7.75;;;;;8.38;57.43;103358.88;4918299;28;46229;-75
2022/01/21 10:16:05;;;;;;;;;10.75;7.50;;;;;8.42;57.80;103362.69;4917944;28;45470;-74
2022/01/21 10:18:31;;;;;;;;;16.00;10.50;;;;;8.39;58.50;103367.78;4907812;28;45504;-71
2022/01/21 10:21:06;;;;;;;;;14.50;9.25;;;;;8.29;58.10;103340.41;4935050;28;45363;-71
2022/01/21 10:23:35;;;;;;;;;13.75;12.00;;;;;8.48;57.42;103364.13;4935075;28;45473;-73
2022/01/21 10:26:05;;;;;;;;;11.75;10.25;;;;;8.43;58.37;103341.53;4934835;28;45671;-78
2022/01/21 10:28:32;;;;;;;;;15.50;11.00;;;;;8.33;57.92;103325.59;4931624;28;45476;-74
2022/01/21 10:31:27;;;;;;;;;15.25;12.75;;;;;8.26;57.83;103301.97;4916599;28;45561;-73
2022/01/21 10:34:03;;;;;;;;;10.25;8.50;;;;;8.59;56.83;103358.69;4927120;28;46160;-75
2022/01/21 10:36:32;;;;;;;;;20.00;17.75;;;;;8.70;56.83;103373.75;4934759;28;45275;-72
2022/01/21 10:39:09;;;;;;;;;16.50;11.00;;;;;8.71;56.91;103375.63;4934945;28;45615;-75
2022/01/21 10:41:35;;;;;;;;;16.00;10.50;;;;;8.69;56.98;103371.88;4934900;28;45467;-73
2022/01/21 10:44:06;;;;;;;;;12.75;10.00;;;;;8.69;57.33;103365.63;4933953;28;46903;-75
2022/01/21 10:46:32;;;;;;;;;32.50;26.00;;;;;8.04;56.90;103252.38;4933812;28;45465;-76
2022/01/21 10:49:00;;;;;;;;;17.25;10.25;;;;;8.35;56.38;103292.03;4934471;28;45482;-71
2022/01/21 10:51:28;;;;;;;;;12.75;11.50;;;;;8.53;57.09;103328.88;4934920;28;45311;-75
2022/01/21 10:53:56;;;;;;;;;15.00;14.75;;;;;8.76;57.22;103367.94;4934391;28;45975;-74
2022/01/21 10:56:24;;;;;;;;;15.50;13.25;;;;;8.38;56.49;103293.97;4934130;28;45445;-77
2022/01/21 10:58:52;;;;;;;;;9.25;8.50;;;;;8.35;56.30;103269.78;4934365;28;45496;-74
2022/01/21 11:01:26;;;;;;;;;14.00;12.00;;;;;8.75;55.79;103337.72;4934130;28;45246;-71
2022/01/21 11:03:59;;;;;;;;;16.75;12.50;;;;;8.73;56.64;103335.72;4935644;28;46170;-72
2022/01/21 11:06:29;;;;;;;;;11.25;10.50;;;;;8.69;56.63;103342.56;4937210;28;45384;-76
2022/01/21 11:09:24;;;;;;;;;13.75;10.75;;;;;8.44;56.45;103299.81;4937185;28;45452;-78
2022/01/21 11:12:10;;;;;;;;;15.00;10.50;;;;;8.81;56.89;103348.84;4937372;28;45590;-80
2022/01/21 11:14:37;;;;;;;;;17.25;15.25;;;;;8.83;56.23;103352.53;4936482;28;46268;-76
2022/01/21 11:17:08;;;;;;;;;9.25;9.25;;;;;8.87;55.90;103355.44;4937042;28;45385;-73
2022/01/21 11:19:35;;;;;;;;;15.50;12.75;;;;;8.11;56.08;103240.47;4937501;28;45442;-74
2022/01/21 11:22:04;;;;;;;;;13.25;12.00;;;;;8.79;55.65;103333.53;4937768;28;45419;-75
2022/01/21 11:24:31;;;;;;;;;15.25;12.00;;;;;8.90;56.35;103353.94;4936888;28;47197;-75
2022/01/21 11:27:14;;;;;;;;;8.75;8.25;;;;;8.79;56.24;103333.53;4937338;28;45565;-75
2022/01/21 11:29:41;;;;;;;;;11.25;9.00;;;;;8.71;56.19;103317.00;4936951;28;45442;-74
2022/01/21 11:32:07;;;;;;;;;6.00;2.50;;;;;8.92;56.19;103354.97;4936715;28;45459;-74
2022/01/21 11:34:34;;;;;;;;;12.00;8.25;;;;;8.83;56.34;103341.88;4931771;28;45430;-77
2022/01/21 11:37:00;;;;;;;;;24.00;15.00;;;;;8.81;55.84;103318.56;4916684;28;45457;-77
2022/01/21 11:39:27;;;;;;;;;14.00;12.00;;;;;9.03;56.57;103353.13;4918898;28;45300;-76
2022/01/21 11:41:55;;;;;;;;;11.50;10.50;;;;;8.53;55.69;103251.63;4919260;28;45844;-74
2022/01/21 11:44:22;;;;;;;;;11.00;9.75;;;;;9.08;55.63;103340.13;4918025;28;46396;-73
2022/01/21 11:47:01;;;;;;;;;15.50;11.50;;;;;8.91;55.92;103320.19;4918410;28;45432;-79
2022/01/21 11:49:29;;;;;;;;;9.50;6.00;;;;;9.13;55.79;103336.06;4925103;28;45418;-77
2022/01/21 11:52:27;;;;;;;;;12.50;11.25;;;;;9.01;55.54;103315.66;4931403;28;45898;-78
2022/01/21 11:54:52;;;;;;;;;25.25;14.75;;;;;9.21;56.14;103330.47;4880328;28;45987;-78
2022/01/21 11:57:30;;;;;;;;;27.25;23.75;;;;;9.13;54.66;103306.72;4918982;28;45410;-78
2022/01/21 12:00:05;;;;;;;;;17.50;14.50;;;;;9.00;54.67;103287.13;4918681;28;45524;-77
2022/01/21 12:02:33;;;;;;;;;11.50;11.50;;;;;9.33;54.60;103337.53;4919028;28;45517;-75
2022/01/21 12:05:10;;;;;;;;;15.50;13.00;;;;;9.27;55.38;103313.06;4918047;28;45345;-77
2022/01/21 12:07:36;;;;;;;;;9.25;6.00;;;;;9.34;54.43;103318.97;4929352;28;45503;-79
2022/01/21 12:10:15;;;;;;;;;14.00;11.00;;;;;9.39;54.95;103330.91;4906964;28;45458;-79
2022/01/21 12:12:59;;;;;;;;;18.00;14.25;;;;;9.43;54.24;103325.78;4919205;28;45479;-79
2022/01/21 12:15:27;;;;;;;;;12.25;10.50;;;;;9.41;54.15;103329.25;4918377;28;46149;-75
2022/01/21 12:20:43;;;;;;;;;15.50;12.75;;;;;9.48;54.22;103335.97;4937472;28;45355;-78